sensor_id;sensor_type;location;lat;lon;timestamp;P1;durP1;ratioP1;P2;durP2;ratioP2
44366;SDS011;30086;57.660;12.000;2023-07-24T00:00:28;3.40;;;1.70;;
44366;SDS011;30086;57.660;12.000;2023-07-24T00:02:56;2.33;;;2.13;;
44366;SDS011;30086;57.660;12.000;2023-07-24T00:05:23;4.50;;;2.08;;
44366;SDS011;30086;57.660;12.000;2023-07-24T00:07:49;2.50;;;2.15;;
44366;SDS011;30086;57.660;12.000;2023-07-24T00:10:15;3.88;;;2.35;;
44366;SDS011;30086;57.660;12.000;2023-07-24T00:12:41;3.33;;;2.00;;
44366;SDS011;30086;57.660;12.000;2023-07-24T00:15:07;2.58;;;1.90;;
44366;SDS011;30086;57.660;12.000;2023-07-24T00:17:33;5.25;;;1.75;;
44366;SDS011;30086;57.660;12.000;2023-07-24T00:19:59;2.60;;;1.92;;
44366;SDS011;30086;57.660;12.000;2023-07-24T00:22:26;2.15;;;1.90;;
44366;SDS011;30086;57.660;12.000;2023-07-24T00:24:52;1.92;;;1.75;;
44366;SDS011;30086;57.660;12.000;2023-07-24T00:27:18;2.13;;;1.92;;
44366;SDS011;30086;57.660;12.000;2023-07-24T00:29:44;2.58;;;1.65;;
44366;SDS011;30086;57.660;12.000;2023-07-24T00:32:10;1.95;;;1.60;;
44366;SDS011;30086;57.660;12.000;2023-07-24T00:34:36;2.78;;;1.92;;
44366;SDS011;30086;57.660;12.000;2023-07-24T00:37:02;2.45;;;1.80;;
44366;SDS011;30086;57.660;12.000;2023-07-24T00:39:28;4.95;;;2.22;;
44366;SDS011;30086;57.660;12.000;2023-07-24T00:41:54;2.75;;;1.98;;
44366;SDS011;30086;57.660;12.000;2023-07-24T00:44:22;2.00;;;1.52;;
44366;SDS011;30086;57.660;12.000;2023-07-24T00:46:48;3.63;;;1.60;;
44366;SDS011;30086;57.660;12.000;2023-07-24T00:49:14;2.05;;;1.70;;
44366;SDS011;30086;57.660;12.000;2023-07-24T00:51:41;2.25;;;1.75;;
44366;SDS011;30086;57.660;12.000;2023-07-24T00:54:10;2.33;;;1.58;;
44366;SDS011;30086;57.660;12.000;2023-07-24T00:56:37;2.90;;;1.85;;
44366;SDS011;30086;57.660;12.000;2023-07-24T00:59:03;4.13;;;1.90;;
44366;SDS011;30086;57.660;12.000;2023-07-24T01:01:29;1.63;;;1.52;;
44366;SDS011;30086;57.660;12.000;2023-07-24T01:03:56;1.73;;;1.55;;
44366;SDS011;30086;57.660;12.000;2023-07-24T01:06:23;3.22;;;1.67;;
44366;SDS011;30086;57.660;12.000;2023-07-24T01:08:49;3.00;;;1.55;;
44366;SDS011;30086;57.660;12.000;2023-07-24T01:11:19;2.63;;;1.70;;
44366;SDS011;30086;57.660;12.000;2023-07-24T01:13:51;2.17;;;1.73;;
44366;SDS011;30086;57.660;12.000;2023-07-24T01:16:20;4.25;;;2.08;;
44366;SDS011;30086;57.660;12.000;2023-07-24T01:18:47;2.35;;;1.70;;
44366;SDS011;30086;57.660;12.000;2023-07-24T01:21:14;2.78;;;1.80;;
44366;SDS011;30086;57.660;12.000;2023-07-24T01:23:55;3.30;;;1.50;;
44366;SDS011;30086;57.660;12.000;2023-07-24T01:26:25;3.00;;;2.03;;
44366;SDS011;30086;57.660;12.000;2023-07-24T01:28:51;2.25;;;1.60;;
44366;SDS011;30086;57.660;12.000;2023-07-24T01:31:17;2.72;;;1.63;;
44366;SDS011;30086;57.660;12.000;2023-07-24T01:33:43;2.65;;;1.70;;
44366;SDS011;30086;57.660;12.000;2023-07-24T01:36:10;1.60;;;1.42;;
44366;SDS011;30086;57.660;12.000;2023-07-24T01:38:36;2.92;;;1.60;;
44366;SDS011;30086;57.660;12.000;2023-07-24T01:41:03;3.28;;;1.70;;
44366;SDS011;30086;57.660;12.000;2023-07-24T01:43:30;2.72;;;1.88;;
44366;SDS011;30086;57.660;12.000;2023-07-24T01:45:57;4.50;;;1.38;;
44366;SDS011;30086;57.660;12.000;2023-07-24T01:48:23;6.10;;;1.42;;
44366;SDS011;30086;57.660;12.000;2023-07-24T01:50:49;2.50;;;1.63;;
44366;SDS011;30086;57.660;12.000;2023-07-24T01:53:15;3.35;;;1.70;;
44366;SDS011;30086;57.660;12.000;2023-07-24T01:55:42;2.33;;;1.50;;
44366;SDS011;30086;57.660;12.000;2023-07-24T01:58:08;2.75;;;1.45;;
44366;SDS011;30086;57.660;12.000;2023-07-24T02:00:34;2.33;;;1.38;;
44366;SDS011;30086;57.660;12.000;2023-07-24T02:03:00;2.58;;;1.40;;
44366;SDS011;30086;57.660;12.000;2023-07-24T02:05:26;2.33;;;1.10;;
44366;SDS011;30086;57.660;12.000;2023-07-24T02:07:52;1.30;;;1.20;;
44366;SDS011;30086;57.660;12.000;2023-07-24T02:10:18;1.65;;;0.98;;
44366;SDS011;30086;57.660;12.000;2023-07-24T02:12:44;2.63;;;1.25;;
44366;SDS011;30086;57.660;12.000;2023-07-24T02:15:11;1.98;;;1.17;;
44366;SDS011;30086;57.660;12.000;2023-07-24T02:17:37;1.65;;;1.38;;
44366;SDS011;30086;57.660;12.000;2023-07-24T02:20:04;1.58;;;1.10;;
44366;SDS011;30086;57.660;12.000;2023-07-24T02:22:30;2.35;;;1.17;;
44366;SDS011;30086;57.660;12.000;2023-07-24T02:24:56;2.15;;;1.10;;
44366;SDS011;30086;57.660;12.000;2023-07-24T02:27:31;2.00;;;0.90;;
44366;SDS011;30086;57.660;12.000;2023-07-24T02:29:59;1.20;;;0.95;;
44366;SDS011;30086;57.660;12.000;2023-07-24T02:32:25;0.95;;;0.80;;
44366;SDS011;30086;57.660;12.000;2023-07-24T02:34:52;1.48;;;1.00;;
44366;SDS011;30086;57.660;12.000;2023-07-24T02:37:18;2.92;;;1.30;;
44366;SDS011;30086;57.660;12.000;2023-07-24T02:39:45;2.15;;;1.17;;
44366;SDS011;30086;57.660;12.000;2023-07-24T02:42:11;1.25;;;1.10;;
44366;SDS011;30086;57.660;12.000;2023-07-24T02:44:37;2.38;;;0.95;;
44366;SDS011;30086;57.660;12.000;2023-07-24T02:47:04;1.83;;;1.10;;
44366;SDS011;30086;57.660;12.000;2023-07-24T02:49:30;1.30;;;0.82;;
44366;SDS011;30086;57.660;12.000;2023-07-24T02:51:56;1.08;;;0.88;;
44366;SDS011;30086;57.660;12.000;2023-07-24T02:54:22;1.63;;;1.05;;
44366;SDS011;30086;57.660;12.000;2023-07-24T02:56:49;3.28;;;1.05;;
44366;SDS011;30086;57.660;12.000;2023-07-24T02:59:15;1.10;;;0.88;;
44366;SDS011;30086;57.660;12.000;2023-07-24T03:01:41;1.20;;;1.10;;
44366;SDS011;30086;57.660;12.000;2023-07-24T03:04:07;1.63;;;0.98;;
44366;SDS011;30086;57.660;12.000;2023-07-24T03:06:33;1.75;;;0.90;;
44366;SDS011;30086;57.660;12.000;2023-07-24T03:08:59;2.25;;;1.20;;
44366;SDS011;30086;57.660;12.000;2023-07-24T03:11:25;4.30;;;1.30;;
44366;SDS011;30086;57.660;12.000;2023-07-24T03:13:51;1.20;;;1.10;;
44366;SDS011;30086;57.660;12.000;2023-07-24T03:16:17;1.85;;;1.40;;
44366;SDS011;30086;57.660;12.000;2023-07-24T03:18:46;2.00;;;0.95;;
44366;SDS011;30086;57.660;12.000;2023-07-24T03:21:12;1.73;;;1.30;;
44366;SDS011;30086;57.660;12.000;2023-07-24T03:23:38;1.50;;;1.20;;
44366;SDS011;30086;57.660;12.000;2023-07-24T03:26:04;3.75;;;1.38;;
44366;SDS011;30086;57.660;12.000;2023-07-24T03:28:30;2.72;;;1.30;;
44366;SDS011;30086;57.660;12.000;2023-07-24T03:30:56;2.25;;;1.65;;
44366;SDS011;30086;57.660;12.000;2023-07-24T03:33:22;2.33;;;1.60;;
44366;SDS011;30086;57.660;12.000;2023-07-24T03:35:48;3.00;;;1.77;;
44366;SDS011;30086;57.660;12.000;2023-07-24T03:38:14;2.63;;;2.00;;
44366;SDS011;30086;57.660;12.000;2023-07-24T03:40:40;4.07;;;2.50;;
44366;SDS011;30086;57.660;12.000;2023-07-24T03:43:06;12.13;;;3.20;;
44366;SDS011;30086;57.660;12.000;2023-07-24T03:45:32;4.25;;;2.45;;
44366;SDS011;30086;57.660;12.000;2023-07-24T03:47:58;7.05;;;3.42;;
44366;SDS011;30086;57.660;12.000;2023-07-24T03:50:24;9.00;;;3.00;;
44366;SDS011;30086;57.660;12.000;2023-07-24T03:52:50;5.10;;;2.75;;
44366;SDS011;30086;57.660;12.000;2023-07-24T03:55:16;9.15;;;3.17;;
44366;SDS011;30086;57.660;12.000;2023-07-24T03:57:42;7.18;;;3.05;;
44366;SDS011;30086;57.660;12.000;2023-07-24T04:00:08;7.72;;;3.58;;
44366;SDS011;30086;57.660;12.000;2023-07-24T04:02:37;6.70;;;3.30;;
44366;SDS011;30086;57.660;12.000;2023-07-24T04:05:04;10.02;;;4.10;;
44366;SDS011;30086;57.660;12.000;2023-07-24T04:07:30;9.88;;;3.80;;
44366;SDS011;30086;57.660;12.000;2023-07-24T04:09:56;11.43;;;4.22;;
44366;SDS011;30086;57.660;12.000;2023-07-24T04:12:22;11.95;;;4.15;;
44366;SDS011;30086;57.660;12.000;2023-07-24T04:14:48;14.60;;;4.97;;
44366;SDS011;30086;57.660;12.000;2023-07-24T04:17:15;18.05;;;5.57;;
44366;SDS011;30086;57.660;12.000;2023-07-24T04:19:41;14.63;;;6.45;;
44366;SDS011;30086;57.660;12.000;2023-07-24T04:22:07;16.77;;;6.15;;
44366;SDS011;30086;57.660;12.000;2023-07-24T04:24:33;18.77;;;6.32;;
44366;SDS011;30086;57.660;12.000;2023-07-24T04:26:59;18.63;;;6.43;;
44366;SDS011;30086;57.660;12.000;2023-07-24T04:29:25;20.27;;;7.53;;
44366;SDS011;30086;57.660;12.000;2023-07-24T04:31:52;19.08;;;7.35;;
44366;SDS011;30086;57.660;12.000;2023-07-24T04:34:18;18.98;;;7.72;;
44366;SDS011;30086;57.660;12.000;2023-07-24T04:36:44;25.38;;;8.10;;
44366;SDS011;30086;57.660;12.000;2023-07-24T04:39:10;23.88;;;8.10;;
44366;SDS011;30086;57.660;12.000;2023-07-24T04:41:36;26.13;;;8.27;;
44366;SDS011;30086;57.660;12.000;2023-07-24T04:44:03;22.45;;;8.10;;
44366;SDS011;30086;57.660;12.000;2023-07-24T04:46:29;22.33;;;8.52;;
44366;SDS011;30086;57.660;12.000;2023-07-24T04:48:58;21.67;;;8.55;;
44366;SDS011;30086;57.660;12.000;2023-07-24T04:51:24;21.00;;;8.43;;
44366;SDS011;30086;57.660;12.000;2023-07-24T04:53:50;24.05;;;9.30;;
44366;SDS011;30086;57.660;12.000;2023-07-24T04:56:16;20.73;;;9.70;;
44366;SDS011;30086;57.660;12.000;2023-07-24T04:58:42;23.42;;;9.05;;
44366;SDS011;30086;57.660;12.000;2023-07-24T05:01:09;18.20;;;8.30;;
44366;SDS011;30086;57.660;12.000;2023-07-24T05:03:35;26.23;;;9.85;;
44366;SDS011;30086;57.660;12.000;2023-07-24T05:06:01;22.58;;;9.13;;
44366;SDS011;30086;57.660;12.000;2023-07-24T05:08:27;21.15;;;10.02;;
44366;SDS011;30086;57.660;12.000;2023-07-24T05:10:55;26.23;;;10.57;;
44366;SDS011;30086;57.660;12.000;2023-07-24T05:13:22;21.55;;;10.30;;
44366;SDS011;30086;57.660;12.000;2023-07-24T05:15:51;19.48;;;9.88;;
44366;SDS011;30086;57.660;12.000;2023-07-24T05:18:17;27.05;;;11.60;;
44366;SDS011;30086;57.660;12.000;2023-07-24T05:20:48;16.90;;;10.35;;
44366;SDS011;30086;57.660;12.000;2023-07-24T05:23:16;32.13;;;12.27;;
44366;SDS011;30086;57.660;12.000;2023-07-24T05:25:46;22.00;;;11.15;;
44366;SDS011;30086;57.660;12.000;2023-07-24T05:28:13;29.60;;;11.90;;
44366;SDS011;30086;57.660;12.000;2023-07-24T05:30:39;23.60;;;12.23;;
44366;SDS011;30086;57.660;12.000;2023-07-24T05:33:06;21.42;;;11.40;;
44366;SDS011;30086;57.660;12.000;2023-07-24T05:35:32;27.20;;;13.85;;
44366;SDS011;30086;57.660;12.000;2023-07-24T05:37:58;20.33;;;11.80;;
44366;SDS011;30086;57.660;12.000;2023-07-24T05:40:24;23.58;;;12.05;;
44366;SDS011;30086;57.660;12.000;2023-07-24T05:42:50;21.92;;;11.90;;
44366;SDS011;30086;57.660;12.000;2023-07-24T05:45:16;19.17;;;10.07;;
44366;SDS011;30086;57.660;12.000;2023-07-24T05:47:42;15.77;;;9.48;;
44366;SDS011;30086;57.660;12.000;2023-07-24T05:50:09;9.40;;;7.50;;
44366;SDS011;30086;57.660;12.000;2023-07-24T05:52:35;17.75;;;9.48;;
44366;SDS011;30086;57.660;12.000;2023-07-24T05:55:01;13.18;;;8.65;;
44366;SDS011;30086;57.660;12.000;2023-07-24T05:57:28;11.75;;;8.55;;
44366;SDS011;30086;57.660;12.000;2023-07-24T05:59:54;17.70;;;9.13;;
44366;SDS011;30086;57.660;12.000;2023-07-24T06:02:21;15.35;;;10.32;;
44366;SDS011;30086;57.660;12.000;2023-07-24T06:04:47;21.17;;;11.73;;
44366;SDS011;30086;57.660;12.000;2023-07-24T06:07:13;19.58;;;12.70;;
44366;SDS011;30086;57.660;12.000;2023-07-24T06:09:39;29.42;;;15.77;;
44366;SDS011;30086;57.660;12.000;2023-07-24T06:12:05;26.45;;;12.27;;
44366;SDS011;30086;57.660;12.000;2023-07-24T06:14:31;25.30;;;10.80;;
44366;SDS011;30086;57.660;12.000;2023-07-24T06:16:57;19.30;;;12.25;;
44366;SDS011;30086;57.660;12.000;2023-07-24T06:19:23;24.83;;;12.18;;
44366;SDS011;30086;57.660;12.000;2023-07-24T06:21:49;24.38;;;12.10;;
44366;SDS011;30086;57.660;12.000;2023-07-24T06:24:15;20.65;;;12.73;;
44366;SDS011;30086;57.660;12.000;2023-07-24T06:26:41;24.02;;;12.95;;
44366;SDS011;30086;57.660;12.000;2023-07-24T06:29:07;26.85;;;12.73;;
44366;SDS011;30086;57.660;12.000;2023-07-24T06:31:33;19.15;;;10.77;;
44366;SDS011;30086;57.660;12.000;2023-07-24T06:33:59;26.65;;;12.15;;
44366;SDS011;30086;57.660;12.000;2023-07-24T06:36:25;21.08;;;11.00;;
44366;SDS011;30086;57.660;12.000;2023-07-24T06:38:51;19.35;;;9.45;;
44366;SDS011;30086;57.660;12.000;2023-07-24T06:41:17;18.88;;;10.10;;
44366;SDS011;30086;57.660;12.000;2023-07-24T06:43:45;21.58;;;9.95;;
44366;SDS011;30086;57.660;12.000;2023-07-24T06:46:11;19.50;;;8.85;;
44366;SDS011;30086;57.660;12.000;2023-07-24T06:48:37;17.77;;;8.18;;
44366;SDS011;30086;57.660;12.000;2023-07-24T06:51:03;14.30;;;8.40;;
44366;SDS011;30086;57.660;12.000;2023-07-24T06:53:29;16.50;;;7.45;;
44366;SDS011;30086;57.660;12.000;2023-07-24T06:55:55;17.35;;;8.13;;
44366;SDS011;30086;57.660;12.000;2023-07-24T06:58:21;19.40;;;6.90;;
44366;SDS011;30086;57.660;12.000;2023-07-24T07:00:47;20.65;;;8.15;;
44366;SDS011;30086;57.660;12.000;2023-07-24T07:03:13;18.50;;;8.27;;
44366;SDS011;30086;57.660;12.000;2023-07-24T07:05:39;19.52;;;7.22;;
44366;SDS011;30086;57.660;12.000;2023-07-24T07:08:05;13.10;;;6.75;;
44366;SDS011;30086;57.660;12.000;2023-07-24T07:10:32;13.73;;;6.85;;
44366;SDS011;30086;57.660;12.000;2023-07-24T07:12:58;13.85;;;6.15;;
44366;SDS011;30086;57.660;12.000;2023-07-24T07:15:24;14.68;;;6.00;;
44366;SDS011;30086;57.660;12.000;2023-07-24T07:17:52;15.98;;;7.35;;
44366;SDS011;30086;57.660;12.000;2023-07-24T07:20:18;14.80;;;7.50;;
44366;SDS011;30086;57.660;12.000;2023-07-24T07:22:45;14.73;;;8.10;;
44366;SDS011;30086;57.660;12.000;2023-07-24T07:25:11;15.75;;;8.35;;
44366;SDS011;30086;57.660;12.000;2023-07-24T07:27:37;17.27;;;8.57;;
44366;SDS011;30086;57.660;12.000;2023-07-24T07:30:04;20.58;;;8.85;;
44366;SDS011;30086;57.660;12.000;2023-07-24T07:32:31;15.30;;;8.45;;
44366;SDS011;30086;57.660;12.000;2023-07-24T07:34:58;14.35;;;8.35;;
44366;SDS011;30086;57.660;12.000;2023-07-24T07:37:24;19.13;;;9.63;;
44366;SDS011;30086;57.660;12.000;2023-07-24T07:39:50;26.40;;;10.32;;
44366;SDS011;30086;57.660;12.000;2023-07-24T07:42:16;19.88;;;10.10;;
44366;SDS011;30086;57.660;12.000;2023-07-24T07:44:42;16.58;;;9.55;;
44366;SDS011;30086;57.660;12.000;2023-07-24T07:47:08;18.65;;;9.85;;
44366;SDS011;30086;57.660;12.000;2023-07-24T07:49:34;19.60;;;10.20;;
44366;SDS011;30086;57.660;12.000;2023-07-24T07:52:00;19.20;;;9.90;;
44366;SDS011;30086;57.660;12.000;2023-07-24T07:54:26;14.00;;;9.00;;
44366;SDS011;30086;57.660;12.000;2023-07-24T07:56:52;17.98;;;9.30;;
44366;SDS011;30086;57.660;12.000;2023-07-24T07:59:18;12.93;;;8.35;;
44366;SDS011;30086;57.660;12.000;2023-07-24T08:01:44;10.05;;;6.10;;
44366;SDS011;30086;57.660;12.000;2023-07-24T08:04:11;11.80;;;6.40;;
44366;SDS011;30086;57.660;12.000;2023-07-24T08:06:37;11.95;;;6.10;;
44366;SDS011;30086;57.660;12.000;2023-07-24T08:09:03;11.88;;;6.45;;
44366;SDS011;30086;57.660;12.000;2023-07-24T08:11:29;9.35;;;6.03;;
44366;SDS011;30086;57.660;12.000;2023-07-24T08:13:55;11.30;;;6.55;;
44366;SDS011;30086;57.660;12.000;2023-07-24T08:16:21;6.18;;;4.40;;
44366;SDS011;30086;57.660;12.000;2023-07-24T08:18:48;8.20;;;4.60;;
44366;SDS011;30086;57.660;12.000;2023-07-24T08:21:14;8.80;;;5.07;;
44366;SDS011;30086;57.660;12.000;2023-07-24T08:23:41;7.78;;;4.32;;
44366;SDS011;30086;57.660;12.000;2023-07-24T08:26:07;6.50;;;4.80;;
44366;SDS011;30086;57.660;12.000;2023-07-24T08:28:33;7.07;;;4.30;;
44366;SDS011;30086;57.660;12.000;2023-07-24T08:31:02;5.38;;;3.88;;
44366;SDS011;30086;57.660;12.000;2023-07-24T08:33:28;7.35;;;4.05;;
44366;SDS011;30086;57.660;12.000;2023-07-24T08:35:59;8.50;;;4.05;;
44366;SDS011;30086;57.660;12.000;2023-07-24T08:38:30;7.25;;;4.15;;
44366;SDS011;30086;57.660;12.000;2023-07-24T08:41:07;5.15;;;3.90;;
44366;SDS011;30086;57.660;12.000;2023-07-24T08:43:37;6.97;;;4.20;;
44366;SDS011;30086;57.660;12.000;2023-07-24T08:46:04;5.15;;;3.38;;
44366;SDS011;30086;57.660;12.000;2023-07-24T08:48:31;3.22;;;2.80;;
44366;SDS011;30086;57.660;12.000;2023-07-24T08:51:04;3.58;;;2.15;;
44366;SDS011;30086;57.660;12.000;2023-07-24T08:53:32;3.53;;;2.22;;
44366;SDS011;30086;57.660;12.000;2023-07-24T08:56:00;5.63;;;2.47;;
44366;SDS011;30086;57.660;12.000;2023-07-24T08:58:32;4.57;;;2.05;;
44366;SDS011;30086;57.660;12.000;2023-07-24T09:00:58;2.75;;;1.75;;
44366;SDS011;30086;57.660;12.000;2023-07-24T09:03:25;4.18;;;2.03;;
44366;SDS011;30086;57.660;12.000;2023-07-24T09:05:52;4.07;;;1.45;;
44366;SDS011;30086;57.660;12.000;2023-07-24T09:08:30;3.28;;;1.85;;
44366;SDS011;30086;57.660;12.000;2023-07-24T09:10:56;3.92;;;1.40;;
44366;SDS011;30086;57.660;12.000;2023-07-24T09:13:24;2.50;;;1.30;;
44366;SDS011;30086;57.660;12.000;2023-07-24T09:15:52;4.97;;;1.45;;
44366;SDS011;30086;57.660;12.000;2023-07-24T09:18:18;4.15;;;1.80;;
44366;SDS011;30086;57.660;12.000;2023-07-24T09:20:45;4.10;;;1.40;;
44366;SDS011;30086;57.660;12.000;2023-07-24T09:23:15;3.60;;;1.70;;
44366;SDS011;30086;57.660;12.000;2023-07-24T09:25:41;3.03;;;1.60;;
44366;SDS011;30086;57.660;12.000;2023-07-24T09:28:11;4.72;;;1.63;;
44366;SDS011;30086;57.660;12.000;2023-07-24T09:30:38;3.95;;;1.30;;
44366;SDS011;30086;57.660;12.000;2023-07-24T09:33:04;4.38;;;1.63;;
44366;SDS011;30086;57.660;12.000;2023-07-24T09:35:31;5.15;;;1.88;;
44366;SDS011;30086;57.660;12.000;2023-07-24T09:38:07;5.05;;;1.73;;
44366;SDS011;30086;57.660;12.000;2023-07-24T09:40:37;2.35;;;1.40;;
44366;SDS011;30086;57.660;12.000;2023-07-24T09:43:13;3.45;;;1.17;;
44366;SDS011;30086;57.660;12.000;2023-07-24T09:45:40;3.55;;;1.27;;
44366;SDS011;30086;57.660;12.000;2023-07-24T09:48:06;3.10;;;1.40;;
44366;SDS011;30086;57.660;12.000;2023-07-24T09:50:36;4.03;;;1.40;;
44366;SDS011;30086;57.660;12.000;2023-07-24T09:53:02;4.60;;;1.23;;
44366;SDS011;30086;57.660;12.000;2023-07-24T09:55:42;2.15;;;1.40;;
44366;SDS011;30086;57.660;12.000;2023-07-24T09:58:10;4.80;;;1.50;;
44366;SDS011;30086;57.660;12.000;2023-07-24T10:00:37;4.53;;;1.70;;
44366;SDS011;30086;57.660;12.000;2023-07-24T10:03:03;4.05;;;1.65;;
44366;SDS011;30086;57.660;12.000;2023-07-24T10:05:29;6.45;;;2.00;;
44366;SDS011;30086;57.660;12.000;2023-07-24T10:07:55;4.88;;;1.70;;
44366;SDS011;30086;57.660;12.000;2023-07-24T10:10:22;11.27;;;2.33;;
44366;SDS011;30086;57.660;12.000;2023-07-24T10:12:50;6.80;;;1.70;;
44366;SDS011;30086;57.660;12.000;2023-07-24T10:15:16;4.97;;;1.52;;
44366;SDS011;30086;57.660;12.000;2023-07-24T10:17:43;4.13;;;1.67;;
44366;SDS011;30086;57.660;12.000;2023-07-24T10:20:10;6.38;;;1.33;;
44366;SDS011;30086;57.660;12.000;2023-07-24T10:22:43;4.60;;;1.38;;
44366;SDS011;30086;57.660;12.000;2023-07-24T10:25:09;1.27;;;0.70;;
44366;SDS011;30086;57.660;12.000;2023-07-24T10:27:35;3.90;;;0.90;;
44366;SDS011;30086;57.660;12.000;2023-07-24T10:30:03;3.53;;;1.00;;
44366;SDS011;30086;57.660;12.000;2023-07-24T10:32:30;4.82;;;0.80;;
44366;SDS011;30086;57.660;12.000;2023-07-24T10:35:05;2.28;;;1.05;;
44366;SDS011;30086;57.660;12.000;2023-07-24T10:37:33;2.53;;;0.80;;
44366;SDS011;30086;57.660;12.000;2023-07-24T10:40:00;3.60;;;1.00;;
44366;SDS011;30086;57.660;12.000;2023-07-24T10:42:26;1.88;;;0.80;;
44366;SDS011;30086;57.660;12.000;2023-07-24T10:45:05;3.28;;;0.85;;
44366;SDS011;30086;57.660;12.000;2023-07-24T10:47:32;2.85;;;1.10;;
44366;SDS011;30086;57.660;12.000;2023-07-24T10:49:58;4.25;;;1.10;;
44366;SDS011;30086;57.660;12.000;2023-07-24T10:52:31;2.75;;;1.20;;
44366;SDS011;30086;57.660;12.000;2023-07-24T10:55:01;3.80;;;1.67;;
44366;SDS011;30086;57.660;12.000;2023-07-24T10:57:28;5.88;;;1.70;;
44366;SDS011;30086;57.660;12.000;2023-07-24T10:59:54;1.85;;;1.27;;
44366;SDS011;30086;57.660;12.000;2023-07-24T11:02:20;5.57;;;1.20;;
44366;SDS011;30086;57.660;12.000;2023-07-24T11:04:47;4.30;;;1.25;;
44366;SDS011;30086;57.660;12.000;2023-07-24T11:07:13;2.63;;;1.23;;
44366;SDS011;30086;57.660;12.000;2023-07-24T11:09:39;2.35;;;1.20;;
44366;SDS011;30086;57.660;12.000;2023-07-24T11:12:15;8.20;;;1.30;;
44366;SDS011;30086;57.660;12.000;2023-07-24T11:14:48;3.60;;;1.17;;
44366;SDS011;30086;57.660;12.000;2023-07-24T11:17:14;3.00;;;1.13;;
44366;SDS011;30086;57.660;12.000;2023-07-24T11:19:40;4.03;;;1.40;;
44366;SDS011;30086;57.660;12.000;2023-07-24T11:22:06;5.85;;;1.42;;
44366;SDS011;30086;57.660;12.000;2023-07-24T11:24:32;5.50;;;1.80;;
44366;SDS011;30086;57.660;12.000;2023-07-24T11:26:58;6.93;;;2.03;;
44366;SDS011;30086;57.660;12.000;2023-07-24T11:29:24;5.30;;;1.42;;
44366;SDS011;30086;57.660;12.000;2023-07-24T11:31:54;4.45;;;1.50;;
44366;SDS011;30086;57.660;12.000;2023-07-24T11:34:21;3.42;;;1.17;;
44366;SDS011;30086;57.660;12.000;2023-07-24T11:36:48;3.22;;;1.02;;
44366;SDS011;30086;57.660;12.000;2023-07-24T11:39:21;2.83;;;1.10;;
44366;SDS011;30086;57.660;12.000;2023-07-24T11:41:47;2.42;;;1.35;;
44366;SDS011;30086;57.660;12.000;2023-07-24T11:44:14;3.60;;;1.00;;
44366;SDS011;30086;57.660;12.000;2023-07-24T11:46:42;2.42;;;1.10;;
44366;SDS011;30086;57.660;12.000;2023-07-24T11:49:08;1.58;;;1.00;;
44366;SDS011;30086;57.660;12.000;2023-07-24T11:51:36;1.60;;;1.15;;
44366;SDS011;30086;57.660;12.000;2023-07-24T11:54:09;1.88;;;0.90;;
44366;SDS011;30086;57.660;12.000;2023-07-24T11:56:37;2.15;;;0.93;;
44366;SDS011;30086;57.660;12.000;2023-07-24T11:59:10;1.83;;;1.10;;
44366;SDS011;30086;57.660;12.000;2023-07-24T12:01:37;1.65;;;0.75;;
44366;SDS011;30086;57.660;12.000;2023-07-24T12:04:03;3.97;;;1.23;;
44366;SDS011;30086;57.660;12.000;2023-07-24T12:06:30;4.07;;;0.90;;
44366;SDS011;30086;57.660;12.000;2023-07-24T12:09:03;7.68;;;1.63;;
44366;SDS011;30086;57.660;12.000;2023-07-24T12:11:30;2.05;;;0.80;;
44366;SDS011;30086;57.660;12.000;2023-07-24T12:13:59;2.97;;;0.90;;
44366;SDS011;30086;57.660;12.000;2023-07-24T12:16:25;2.00;;;0.80;;
44366;SDS011;30086;57.660;12.000;2023-07-24T12:18:51;1.88;;;0.80;;
44366;SDS011;30086;57.660;12.000;2023-07-24T12:21:17;4.47;;;0.82;;
44366;SDS011;30086;57.660;12.000;2023-07-24T12:23:43;4.00;;;1.13;;
44366;SDS011;30086;57.660;12.000;2023-07-24T12:26:09;2.55;;;1.05;;
44366;SDS011;30086;57.660;12.000;2023-07-24T12:28:35;2.95;;;0.88;;
44366;SDS011;30086;57.660;12.000;2023-07-24T12:31:01;1.85;;;1.00;;
44366;SDS011;30086;57.660;12.000;2023-07-24T12:33:27;1.17;;;0.80;;
44366;SDS011;30086;57.660;12.000;2023-07-24T12:35:53;2.63;;;1.17;;
44366;SDS011;30086;57.660;12.000;2023-07-24T12:38:19;3.72;;;1.13;;
44366;SDS011;30086;57.660;12.000;2023-07-24T12:40:47;2.50;;;1.00;;
44366;SDS011;30086;57.660;12.000;2023-07-24T12:43:14;5.93;;;1.38;;
44366;SDS011;30086;57.660;12.000;2023-07-24T12:45:40;2.17;;;1.15;;
44366;SDS011;30086;57.660;12.000;2023-07-24T12:48:06;4.80;;;1.10;;
44366;SDS011;30086;57.660;12.000;2023-07-24T12:50:33;4.05;;;1.08;;
44366;SDS011;30086;57.660;12.000;2023-07-24T12:52:59;4.15;;;0.93;;
44366;SDS011;30086;57.660;12.000;2023-07-24T12:55:25;1.73;;;0.77;;
44366;SDS011;30086;57.660;12.000;2023-07-24T12:57:52;3.38;;;0.90;;
44366;SDS011;30086;57.660;12.000;2023-07-24T13:00:18;6.13;;;0.75;;
44366;SDS011;30086;57.660;12.000;2023-07-24T13:02:44;3.05;;;0.80;;
44366;SDS011;30086;57.660;12.000;2023-07-24T13:05:11;1.15;;;0.60;;
44366;SDS011;30086;57.660;12.000;2023-07-24T13:07:37;3.63;;;1.23;;
44366;SDS011;30086;57.660;12.000;2023-07-24T13:10:04;1.98;;;0.82;;
44366;SDS011;30086;57.660;12.000;2023-07-24T13:12:30;2.50;;;0.70;;
44366;SDS011;30086;57.660;12.000;2023-07-24T13:14:57;2.30;;;0.82;;
44366;SDS011;30086;57.660;12.000;2023-07-24T13:17:23;1.98;;;0.63;;
44366;SDS011;30086;57.660;12.000;2023-07-24T13:19:51;1.75;;;0.82;;
44366;SDS011;30086;57.660;12.000;2023-07-24T13:22:17;3.83;;;1.20;;
44366;SDS011;30086;57.660;12.000;2023-07-24T13:24:43;3.10;;;0.68;;
44366;SDS011;30086;57.660;12.000;2023-07-24T13:27:09;3.75;;;1.10;;
44366;SDS011;30086;57.660;12.000;2023-07-24T13:29:35;7.90;;;1.35;;
44366;SDS011;30086;57.660;12.000;2023-07-24T13:32:03;4.60;;;1.00;;
44366;SDS011;30086;57.660;12.000;2023-07-24T13:34:29;1.23;;;0.60;;
44366;SDS011;30086;57.660;12.000;2023-07-24T13:36:55;2.95;;;0.70;;
44366;SDS011;30086;57.660;12.000;2023-07-24T13:39:21;4.60;;;1.23;;
44366;SDS011;30086;57.660;12.000;2023-07-24T13:41:47;2.70;;;0.88;;
44366;SDS011;30086;57.660;12.000;2023-07-24T13:44:13;4.25;;;1.00;;
44366;SDS011;30086;57.660;12.000;2023-07-24T13:46:40;3.33;;;1.10;;
44366;SDS011;30086;57.660;12.000;2023-07-24T13:49:06;3.63;;;0.80;;
44366;SDS011;30086;57.660;12.000;2023-07-24T13:51:32;2.83;;;0.68;;
44366;SDS011;30086;57.660;12.000;2023-07-24T13:53:58;1.80;;;0.80;;
44366;SDS011;30086;57.660;12.000;2023-07-24T13:56:24;2.17;;;0.98;;
44366;SDS011;30086;57.660;12.000;2023-07-24T13:58:52;2.78;;;0.82;;
44366;SDS011;30086;57.660;12.000;2023-07-24T14:01:19;1.17;;;0.70;;
44366;SDS011;30086;57.660;12.000;2023-07-24T14:03:45;0.90;;;0.80;;
44366;SDS011;30086;57.660;12.000;2023-07-24T14:06:11;1.33;;;0.73;;
44366;SDS011;30086;57.660;12.000;2023-07-24T14:08:37;0.82;;;0.47;;
44366;SDS011;30086;57.660;12.000;2023-07-24T14:11:03;3.08;;;0.65;;
44366;SDS011;30086;57.660;12.000;2023-07-24T14:13:30;1.38;;;0.73;;
44366;SDS011;30086;57.660;12.000;2023-07-24T14:15:56;4.05;;;1.00;;
44366;SDS011;30086;57.660;12.000;2023-07-24T14:18:22;2.10;;;1.10;;
44366;SDS011;30086;57.660;12.000;2023-07-24T14:20:48;2.22;;;0.90;;
44366;SDS011;30086;57.660;12.000;2023-07-24T14:23:20;2.80;;;0.82;;
44366;SDS011;30086;57.660;12.000;2023-07-24T14:25:46;1.38;;;0.77;;